Time;durP1;ratioP1;P1;durP2;ratioP2;P2;SDS_P1;SDS_P2;PMS_P1;PMS_P2;Temp;Humidity;BMP_temperature;BMP_pressure;BME280_temperature;BME280_humidity;BME280_pressure;Samples;Min_cycle;Max_cycle;Signal;HPM_P1;HPM_P2
2022/06/02 00:02:32;;;;;;;11.13;6.60;;;;;;;15.71;76.09;99546.72;4955289;28;20054;-69
2022/06/02 00:05:28;;;;;;;9.60;5.28;;;;;;;15.70;76.32;99545.09;4972267;28;20717;-69
2022/06/02 00:08:22;;;;;;;10.02;6.90;;;;;;;15.72;76.20;99544.84;4954406;28;20053;-70
2022/06/02 00:11:10;;;;;;;8.90;5.75;;;;;;;15.74;76.08;99537.38;4954848;28;20035;-69
2022/06/02 00:13:53;;;;;;;10.90;6.28;;;;;;;15.78;75.53;99547.25;4954586;28;20408;-70
2022/06/02 00:16:29;;;;;;;11.52;5.70;;;;;;;15.78;75.44;99535.75;4938886;28;20050;-70
2022/06/02 00:18:58;;;;;;;9.40;5.78;;;;;;;15.80;75.13;99536.31;4972002;28;20543;-70
2022/06/02 00:21:28;;;;;;;11.30;5.95;;;;;;;15.76;75.09;99533.34;4954508;28;20070;-70
2022/06/02 00:24:02;;;;;;;7.57;5.43;;;;;;;15.75;75.30;99530.97;4954548;28;20412;-70
2022/06/02 00:26:45;;;;;;;10.35;5.55;;;;;;;15.71;75.17;99532.56;4938670;28;20098;-71
2022/06/02 00:29:30;;;;;;;12.70;5.43;;;;;;;15.70;75.30;99539.75;4972215;28;20039;-70
2022/06/02 00:32:02;;;;;;;9.65;5.10;;;;;;;15.72;75.45;99537.63;4971830;28;20043;-69
2022/06/02 00:34:36;;;;;;;8.70;5.43;;;;;;;15.76;74.88;99537.91;4975418;28;20583;-70
2022/06/02 00:37:04;;;;;;;9.52;5.47;;;;;;;15.79;74.81;99537.34;4975462;28;20050;-70
2022/06/02 00:39:32;;;;;;;11.95;6.20;;;;;;;15.80;74.79;99536.31;4975815;28;20050;-69
2022/06/02 00:42:24;;;;;;;8.15;5.63;;;;;;;15.77;74.77;99542.19;4975026;28;20165;-70
2022/06/02 00:45:04;;;;;;;9.25;5.53;;;;;;;15.74;74.83;99535.50;4970810;28;20109;-69
2022/06/02 00:47:56;;;;;;;10.00;5.55;;;;;;;15.70;74.73;99537.09;4975216;28;20042;-69
2022/06/02 00:50:37;;;;;;;10.55;5.35;;;;;;;15.64;74.74;99530.13;4975538;28;20129;-70
2022/06/02 00:53:40;;;;;;;13.55;8.38;;;;;;;15.58;75.05;99529.31;4975097;28;20051;-70
2022/06/02 00:59:58;;;;;;;19.63;11.20;;;;;;;15.49;75.93;99538.13;4960622;28;20089;-70
2022/06/02 01:02:25;;;;;;;18.10;11.90;;;;;;;15.48;75.87;99534.66;4949684;28;20061;-70
2022/06/02 01:04:54;;;;;;;18.70;11.57;;;;;;;15.47;76.00;99534.91;4958031;28;20045;-70
2022/06/02 01:07:49;;;;;;;21.10;11.90;;;;;;;15.48;76.16;99536.53;4957495;28;20511;-70
2022/06/02 01:10:44;;;;;;;19.13;10.18;;;;;;;15.50;76.47;99535.19;4969701;28;20070;-69
2022/06/02 01:13:26;;;;;;;13.18;9.90;;;;;;;15.56;76.14;99531.47;4957449;28;20062;-69
2022/06/02 01:16:00;;;;;;;15.10;8.95;;;;;;;15.65;75.98;99532.53;4975076;28;20058;-70
2022/06/02 01:18:41;;;;;;;12.40;7.95;;;;;;;15.75;75.92;99536.31;4941282;28;20058;-70
2022/06/02 01:21:38;;;;;;;13.73;7.90;;;;;;;15.84;76.19;99527.47;4974778;28;20121;-70
2022/06/02 01:24:29;;;;;;;16.05;8.18;;;;;;;15.94;75.70;99526.66;4925428;28;20520;-69
2022/06/02 01:27:14;;;;;;;;;;;;;;;16.03;75.67;99533.09;4975244;28;20131;-69
2022/06/02 01:29:43;;;;;;;17.98;7.95;;;;;;;16.12;75.44;99530.66;4956496;28;19972;-69
2022/06/02 01:32:11;;;;;;;17.35;7.97;;;;;;;16.22;75.27;99522.59;4957074;28;20444;-70
2022/06/02 01:34:49;;;;;;;11.88;7.72;;;;;;;16.35;74.56;99518.56;4957586;28;20073;-70
2022/06/02 01:37:22;;;;;;;15.43;8.10;;;;;;;16.42;74.45;99518.28;4974287;28;20034;-70
2022/06/02 01:40:06;;;;;;;13.85;7.82;;;;;;;16.57;73.68;99519.03;4974466;28;20050;-70
2022/06/02 01:42:53;;;;;;;12.93;8.32;;;;;;;16.95;72.95;99523.97;4973957;28;20050;-71
2022/06/02 01:45:31;;;;;;;12.88;9.82;;;;;;;17.38;71.68;99521.56;4973604;28;20415;-70
2022/06/02 01:48:29;;;;;;;14.00;10.05;;;;;;;17.73;69.76;99520.47;4956517;28;20105;-70
2022/06/02 01:51:10;;;;;;;17.58;11.77;;;;;;;18.01;68.79;99528.88;4957540;28;20102;-69
2022/06/02 01:53:57;;;;;;;22.95;13.25;;;;;;;18.07;68.11;99527.72;4957020;28;20615;-69
2022/06/02 01:56:44;;;;;;;19.90;13.27;;;;;;;18.16;67.85;99531.41;4974578;28;20054;-69
2022/06/02 01:59:22;;;;;;;17.25;11.30;;;;;;;18.34;66.80;99533.34;4956948;28;20057;-68
2022/06/02 02:02:12;;;;;;;15.80;9.50;;;;;;;18.63;65.87;99527.13;4974022;28;20049;-69
2022/06/02 02:05:19;;;;;;;18.90;10.13;;;;;;;18.46;66.15;99527.56;4957188;28;20049;-69
2022/06/02 02:08:09;;;;;;;12.93;10.35;;;;;;;18.25;66.86;99526.22;4944925;28;20051;-70
2022/06/02 02:11:12;;;;;;;19.90;10.25;;;;;;;18.08;67.42;99521.28;4956879;28;20042;-67
2022/06/02 02:14:13;;;;;;;17.00;11.15;;;;;;;17.94;68.09;99529.16;4956544;28;20154;-69
2022/06/02 02:16:51;;;;;;;16.75;11.07;;;;;;;18.08;67.74;99532.00;4956527;28;20508;-70
2022/06/02 02:19:19;;;;;;;17.73;11.07;;;;;;;18.03;67.85;99524.81;4974044;28;20054;-70
2022/06/02 02:21:54;;;;;;;19.40;10.27;;;;;;;17.99;67.84;99522.97;4974051;28;20045;-70
2022/06/02 02:24:33;;;;;;;15.25;10.45;;;;;;;17.83;67.97;99503.56;4973404;28;20058;-70
2022/06/02 02:27:18;;;;;;;16.60;12.20;;;;;;;17.95;67.84;99521.94;4973838;28;20089;-70
2022/06/02 02:30:08;;;;;;;19.25;11.40;;;;;;;18.00;67.80;99519.19;4940454;28;20453;-70
2022/06/02 02:32:45;;;;;;;19.80;11.50;;;;;;;18.06;67.80;99518.06;4973570;28;20046;-70
2022/06/02 02:35:14;;;;;;;14.82;9.80;;;;;;;18.02;67.22;99515.16;4956506;28;20129;-70
2022/06/02 02:37:50;;;;;;;13.68;9.00;;;;;;;17.99;67.23;99502.31;4973033;28;20051;-70
2022/06/02 02:40:30;;;;;;;15.13;9.07;;;;;;;17.99;67.08;99514.94;4956646;28;20125;-70
2022/06/02 02:43:03;;;;;;;15.90;9.73;;;;;;;18.24;66.07;99505.84;4955890;28;20566;-70
2022/06/02 02:45:51;;;;;;;16.38;10.30;;;;;;;18.54;64.86;99512.75;4956363;28;20042;-70
2022/06/02 02:48:23;;;;;;;15.68;8.85;;;;;;;18.49;64.86;99504.75;4973274;28;20043;-70
2022/06/02 02:50:55;;;;;;;12.75;8.05;;;;;;;18.89;63.49;99499.97;4973131;28;20231;-69
2022/06/02 02:53:29;;;;;;;12.07;7.38;;;;;;;19.49;61.55;99489.41;4973187;28;20042;-70
2022/06/02 02:56:12;;;;;;;13.68;9.00;;;;;;;20.10;59.48;99492.97;4956252;28;20057;-70
2022/06/02 02:58:49;;;;;;;14.75;9.38;;;;;;;20.67;57.69;99488.06;4939895;28;20143;-70
2022/06/02 03:01:42;;;;;;;17.85;9.15;;;;;;;21.14;56.34;99485.16;4956148;28;20089;-71
2022/06/02 03:04:11;;;;;;;14.98;9.35;;;;;;;21.59;54.75;99488.72;4973072;28;20065;-69
2022/06/02 03:06:41;;;;;;;15.55;9.50;;;;;;;21.89;53.73;99491.72;4972926;28;20043;-69
2022/06/02 03:09:29;;;;;;;12.63;7.72;;;;;;;22.19;52.43;99495.53;4955706;28;20051;-70
2022/06/02 03:11:57;;;;;;;10.43;7.10;;;;;;;22.30;51.96;99493.38;4973089;28;20163;-69
2022/06/02 03:14:58;;;;;;;12.63;6.93;;;;;;;22.67;51.07;99495.50;4972607;28;20055;-70
2022/06/02 03:17:42;;;;;;;10.35;6.68;;;;;;;22.89;50.16;99486.50;4955654;28;20061;-69
2022/06/02 03:20:26;;;;;;;13.05;6.55;;;;;;;22.98;50.05;99483.03;4955549;28;20418;-70
2022/06/02 03:23:19;;;;;;;10.90;6.30;;;;;;;23.13;49.77;99479.84;4972409;28;20392;-69
2022/06/02 03:25:55;;;;;;;14.40;6.80;;;;;;;23.49;48.29;99476.78;4972626;28;20575;-69
2022/06/02 03:28:49;;;;;;;8.77;6.05;;;;;;;23.55;48.02;99489.03;4972908;28;20047;-71
2022/06/02 03:31:15;;;;;;;10.35;5.88;;;;;;;23.39;48.39;99479.84;4939157;28;20039;-70
2022/06/02 03:34:06;;;;;;;8.98;5.95;;;;;;;23.66;47.51;99484.09;4972951;28;20053;-69
2022/06/02 03:36:51;;;;;;;11.48;5.72;;;;;;;23.61;47.05;99486.94;4955116;28;20101;-70
2022/06/02 03:39:33;;;;;;;10.60;5.88;;;;;;;23.60;47.40;99492.69;4973094;28;20047;-70
2022/06/02 03:42:26;;;;;;;8.73;5.88;;;;;;;23.94;46.69;99491.81;4972687;28;20451;-70
2022/06/02 03:45:06;;;;;;;14.65;6.10;;;;;;;23.92;46.21;99489.47;4972382;28;20058;-70
2022/06/02 03:47:45;;;;;;;10.65;5.53;;;;;;;23.84;46.07;99498.41;4954904;28;20035;-70
2022/06/02 03:50:39;;;;;;;8.55;4.90;;;;;;;23.80;46.64;99497.47;4955033;28;20050;-70
2022/06/02 03:53:32;;;;;;;10.55;5.75;;;;;;;23.86;46.59;99503.50;4972463;28;20066;-70
2022/06/02 03:56:33;;;;;;;13.50;5.72;;;;;;;23.66;46.57;99505.72;4972212;28;20046;-69
2022/06/02 03:59:21;;;;;;;13.40;5.70;;;;;;;23.74;46.47;99496.84;4971015;28;20055;-69
2022/06/02 04:01:54;;;;;;;9.07;5.50;;;;;;;23.76;46.52;99488.38;4972661;28;20039;-69
2022/06/02 04:04:40;;;;;;;7.95;5.00;;;;;;;23.94;46.50;99506.19;4955050;28;20050;-68
2022/06/02 04:07:34;;;;;;;9.13;4.82;;;;;;;23.85;46.31;99499.19;4938991;28;20039;-68
2022/06/02 04:10:00;;;;;;;10.20;5.47;;;;;;;23.86;46.42;99498.88;4966455;28;20047;-70
2022/06/02 04:15:54;;;;;;;12.52;4.78;;;;;;;24.05;45.98;99497.69;4950864;28;20054;-70
2022/06/02 04:18:39;;;;;;;10.68;4.80;;;;;;;24.01;45.14;99490.22;4976282;28;20508;-68
2022/06/02 04:21:45;;;;;;;14.70;5.05;;;;;;;24.05;45.25;99494.97;4958241;28;20117;-69
2022/06/02 04:24:37;;;;;;;8.73;4.60;;;;;;;24.12;44.83;99490.66;4955280;28;20062;-68
2022/06/02 04:27:12;;;;;;;8.30;4.28;;;;;;;24.15;44.95;99508.16;4942559;28;20105;-69
2022/06/02 04:29:52;;;;;;;8.93;4.50;;;;;;;24.26;45.46;99504.75;4958586;28;20047;-68
2022/06/02 04:32:57;;;;;;;9.75;4.65;;;;;;;24.34;44.73;99505.84;4975253;28;20475;-69
2022/06/02 04:35:48;;;;;;;10.23;4.32;;;;;;;24.31;45.37;99503.00;4974810;28;20050;-68
2022/06/02 04:38:24;;;;;;;10.82;4.15;;;;;;;24.45;44.58;99509.03;4958263;28;20058;-70
2022/06/02 04:41:19;;;;;;;6.07;4.20;;;;;;;24.44;44.56;99494.69;4957896;28;20464;-69
2022/06/02 04:44:07;;;;;;;11.55;5.10;;;;;;;24.39;44.46;99491.34;4939456;28;20134;-69
2022/06/02 04:47:10;;;;;;;10.60;4.65;;;;;;;24.25;45.17;99503.19;4958662;28;20039;-71
2022/06/02 04:50:07;;;;;;;10.20;5.07;;;;;;;24.30;45.13;99515.75;4975075;28;20539;-70
2022/06/02 04:53:22;;;;;;;9.60;4.75;;;;;;;24.52;44.79;99508.50;4954796;28;20050;-70
2022/06/02 04:56:10;;;;;;;9.05;5.13;;;;;;;24.57;45.28;99506.41;4931504;28;20523;-69
2022/06/02 04:58:55;;;;;;;10.75;4.97;;;;;;;24.65;44.86;99508.28;4957948;28;20459;-70
2022/06/02 05:01:26;;;;;;;11.48;5.13;;;;;;;24.59;44.87;99508.78;4975316;28;20042;-70
2022/06/02 05:03:52;;;;;;;13.25;5.60;;;;;;;24.42;45.90;99498.81;4957570;28;20038;-69
2022/06/02 05:06:36;;;;;;;9.00;5.22;;;;;;;24.16;46.13;99509.75;4972593;28;20060;-70
2022/06/02 05:09:11;;;;;;;12.20;6.28;;;;;;;23.95;46.75;99499.63;4956669;28;20042;-69
2022/06/02 05:11:48;;;;;;;10.20;5.50;;;;;;;23.99;47.00;99502.50;4974675;28;20046;-70
2022/06/02 05:14:23;;;;;;;12.93;5.82;;;;;;;23.90;47.33;99504.44;4955252;28;20073;-71
2022/06/02 05:17:21;;;;;;;10.23;6.15;;;;;;;23.84;47.61;99500.31;4955711;28;20460;-71
2022/06/02 05:19:59;;;;;;;15.90;6.22;;;;;;;23.73;47.92;99497.94;4948661;28;20484;-72
2022/06/02 05:22:59;;;;;;;7.85;5.18;;;;;;;23.32;49.68;99495.75;4972267;28;20404;-72
2022/06/02 05:25:40;;;;;;;17.98;5.72;;;;;;;23.13;49.46;99496.88;4965601;28;20127;-71
2022/06/02 05:28:06;;;;;;;12.18;6.05;;;;;;;23.09;49.66;99504.03;4955604;28;20043;-69
2022/06/02 05:30:34;;;;;;;8.95;5.57;;;;;;;22.98;50.14;99504.66;4955377;28;20566;-69
2022/06/02 05:33:32;;;;;;;7.15;5.35;;;;;;;22.83;50.50;99500.50;4954207;28;20133;-68
2022/06/02 05:36:16;;;;;;;12.05;6.35;;;;;;;22.47;51.66;99496.09;4974580;28;20085;-70
2022/06/02 05:38:54;;;;;;;9.98;5.93;;;;;;;22.22;52.15;99495.72;4974634;28;20047;-70
2022/06/02 05:41:41;;;;;;;8.80;5.85;;;;;;;22.17;52.43;99492.34;4939060;28;20061;-70
2022/06/02 05:44:36;;;;;;;10.10;5.93;;;;;;;22.08;53.15;99496.88;4955441;28;20065;-70
2022/06/02 05:47:21;;;;;;;10.90;6.60;;;;;;;21.99;53.77;99486.06;4956772;28;20054;-70
2022/06/02 05:49:56;;;;;;;10.70;6.47;;;;;;;21.97;53.55;99489.06;4956053;28;20047;-70
2022/06/02 05:52:33;;;;;;;11.45;6.85;;;;;;;21.97;53.60;99494.47;4972913;28;20043;-69
2022/06/02 05:55:53;;;;;;;12.68;6.60;;;;;;;21.88;54.08;99490.91;4952074;28;20240;-69
2022/06/02 05:58:46;;;;;;;12.73;6.50;;;;;;;21.83;54.13;99488.38;4932348;29;20572;-70
2022/06/02 06:01:24;;;;;;;14.88;6.47;;;;;;;21.91;54.29;99486.81;4923157;28;20125;-70
2022/06/02 06:04:08;;;;;;;10.88;6.18;;;;;;;21.99;53.80;99486.84;4970127;28;20426;-71
2022/06/02 06:06:49;;;;;;;11.95;6.20;;;;;;;21.95;53.96;99469.69;4974069;28;20369;-71
2022/06/02 06:09:37;;;;;;;10.50;6.28;;;;;;;21.86;54.38;99476.16;4954091;28;20045;-69
2022/06/02 06:12:31;;;;;;;13.32;6.72;;;;;;;21.77;55.09;99487.69;4971485;28;20050;-71
2022/06/02 06:15:22;;;;;;;12.60;6.13;;;;;;;21.72;55.69;99476.25;4970995;28;20610;-73
2022/06/02 06:18:13;;;;;;;14.05;7.13;;;;;;;21.74;55.12;99477.53;4945295;28;20457;-71
2022/06/02 06:20:44;;;;;;;11.98;6.32;;;;;;;21.80;55.25;99477.41;4949209;28;20054;-71
2022/06/02 06:23:28;;;;;;;11.38;6.15;;;;;;;21.81;55.04;99470.91;4971711;28;20185;-70
2022/06/02 06:26:04;;;;;;;14.40;5.93;;;;;;;21.83;54.91;99466.78;4971954;28;20126;-71
2022/06/02 06:28:34;;;;;;;11.95;6.05;;;;;;;21.80;55.74;99472.81;4938405;28;20647;-71
2022/06/02 06:31:00;;;;;;;11.15;6.00;;;;;;;21.74;55.85;99472.13;4953672;28;20053;-70
2022/06/02 06:33:51;;;;;;;15.23;6.43;;;;;;;21.73;55.65;99467.03;4972661;28;20072;-69
2022/06/02 06:36:50;;;;;;;15.80;6.45;;;;;;;21.81;55.79;99465.50;4955850;28;20046;-70
2022/06/02 06:39:29;;;;;;;14.77;6.15;;;;;;;21.97;55.97;99458.56;4953966;28;20054;-69
2022/06/02 06:42:21;;;;;;;11.05;6.10;;;;;;;21.97;55.41;99466.66;4970977;28;20134;-70
2022/06/02 06:44:54;;;;;;;13.82;6.22;;;;;;;21.99;55.67;99454.47;4969166;28;20478;-71
2022/06/02 06:47:40;;;;;;;13.20;6.10;;;;;;;22.07;54.72;99455.59;4938434;28;20053;-70
2022/06/02 06:50:23;;;;;;;12.15;7.28;;;;;;;22.09;54.94;99457.97;4969836;28;20062;-70
2022/06/02 06:53:23;;;;;;;10.02;5.88;;;;;;;22.06;55.44;99466.69;4952422;28;20043;-71
2022/06/02 06:56:21;;;;;;;10.85;5.65;;;;;;;22.05;54.72;99470.53;4950419;28;20544;-72
2022/06/02 06:59:03;;;;;;;12.05;5.60;;;;;;;22.12;54.65;99474.38;4952949;28;20051;-73
2022/06/02 07:01:41;;;;;;;9.30;5.57;;;;;;;22.16;54.81;99474.53;4972023;28;20546;-72
2022/06/02 07:04:07;;;;;;;8.85;5.32;;;;;;;22.10;54.95;99471.19;4922996;28;20070;-72
2022/06/02 07:06:55;;;;;;;9.65;5.38;;;;;;;22.08;54.69;99475.28;4971333;28;20042;-71
2022/06/02 07:09:34;;;;;;;12.10;6.38;;;;;;;22.05;54.46;99487.50;4937496;28;20042;-71
2022/06/02 07:15:22;;;;;;;11.20;6.15;;;;;;;22.29;55.32;99476.34;4955208;28;20055;-72
2022/06/02 07:17:48;;;;;;;9.38;5.65;;;;;;;22.42;54.27;99480.84;4954693;28;20085;-70
2022/06/02 07:20:22;;;;;;;9.05;4.93;;;;;;;22.49;53.49;99479.59;4971832;28;20042;-71
2022/06/02 07:22:51;;;;;;;7.82;5.22;;;;;;;22.44;53.56;99481.34;4971560;28;20050;-71
2022/06/02 07:25:25;;;;;;;8.95;5.45;;;;;;;22.42;53.90;99480.06;4972358;28;20479;-72
2022/06/02 07:27:57;;;;;;;9.65;4.95;;;;;;;22.57;53.82;99482.31;4938507;28;20504;-72
2022/06/02 07:30:45;;;;;;;8.70;5.10;;;;;;;22.62;54.88;99479.47;4970912;28;20046;-70
2022/06/02 07:33:17;;;;;;;7.35;4.60;;;;;;;22.77;54.04;99480.94;4952745;28;20130;-70
2022/06/02 07:36:00;;;;;;;12.85;4.72;;;;;;;22.91;53.04;99483.47;4971343;28;20074;-71
2022/06/02 07:38:47;;;;;;;13.07;5.30;;;;;;;22.96;52.77;99491.44;4969730;28;20420;-70
2022/06/02 07:41:31;;;;;;;10.07;4.32;;;;;;;22.97;53.08;99484.13;4967394;28;20500;-72
2022/06/02 07:44:25;;;;;;;11.63;5.03;;;;;;;22.99;52.40;99482.72;4970537;28;20432;-69
2022/06/02 07:47:09;;;;;;;6.65;4.50;;;;;;;22.89;52.97;99483.00;4952464;29;20390;-71
2022/06/02 07:49:42;;;;;;;7.97;4.95;;;;;;;22.88;52.92;99487.63;4938009;28;20579;-70
2022/06/02 07:52:25;;;;;;;6.95;5.10;;;;;;;23.05;52.78;99486.06;4954011;28;20047;-69
2022/06/02 07:54:58;;;;;;;10.30;4.95;;;;;;;23.02;54.12;99487.47;4971602;28;20043;-70
2022/06/02 07:57:56;;;;;;;8.60;5.50;;;;;;;23.29;54.34;99480.16;4954250;28;20043;-71
2022/06/02 08:00:28;;;;;;;12.07;5.38;;;;;;;23.48;53.65;99487.94;4971619;28;20574;-71
2022/06/02 08:03:21;;;;;;;10.80;5.30;;;;;;;23.54;53.41;99483.97;4954318;28;20520;-70
2022/06/02 08:06:01;;;;;;;7.72;5.70;;;;;;;23.73;53.20;99480.91;4971946;28;20059;-71
2022/06/02 08:08:40;;;;;;;8.38;5.97;;;;;;;23.89;52.24;99487.41;4954895;28;20170;-71
2022/06/02 08:11:12;;;;;;;12.23;6.20;;;;;;;23.94;52.43;99481.81;4954786;28;20098;-70
2022/06/02 08:13:45;;;;;;;13.90;6.68;;;;;;;23.85;51.61;99481.03;4970608;28;20933;-70
2022/06/02 08:16:17;;;;;;;8.52;6.25;;;;;;;23.71;51.49;99481.25;4954533;28;20376;-70
2022/06/02 08:18:53;;;;;;;10.90;6.13;;;;;;;23.72;51.73;99473.91;4922235;28;20553;-73
2022/06/02 08:21:22;;;;;;;14.60;6.90;;;;;;;23.87;51.57;99469.88;4953396;28;20500;-70
2022/06/02 08:24:04;;;;;;;15.15;6.50;;;;;;;23.88;51.39;99476.88;4971807;28;20178;-71
2022/06/02 08:27:14;;;;;;;19.25;6.97;;;;;;;23.60;52.30;99479.16;4971082;28;20579;-70
2022/06/02 08:30:04;;;;;;;18.23;6.60;;;;;;;23.61;53.00;99478.03;4930560;29;20215;-71
2022/06/02 08:32:42;;;;;;;14.15;6.82;;;;;;;23.77;53.02;99476.47;4951894;28;20058;-70
2022/06/02 08:35:17;;;;;;;11.75;6.18;;;;;;;24.17;52.34;99482.34;4971139;28;20126;-71
2022/06/02 08:38:05;;;;;;;13.43;5.97;;;;;;;24.44;51.44;99473.00;4953675;28;20051;-71
2022/06/02 08:40:46;;;;;;;10.52;6.07;;;;;;;24.58;50.40;99480.09;4954047;28;20085;-70
2022/06/02 08:43:37;;;;;;;13.30;5.90;;;;;;;24.56;50.36;99488.56;4971347;28;20054;-71
2022/06/02 08:46:22;;;;;;;10.68;5.30;;;;;;;24.62;50.86;99486.44;4971315;28;20437;-71
2022/06/02 08:48:54;;;;;;;13.88;5.47;;;;;;;24.93;50.02;99489.56;4971590;28;20496;-71
2022/06/02 08:51:53;;;;;;;10.98;5.35;;;;;;;25.28;48.49;99488.53;4971220;28;20412;-72
2022/06/02 08:54:50;;;;;;;6.45;5.35;;;;;;;25.66;47.48;99485.59;4939697;28;20120;-71
2022/06/02 08:57:34;;;;;;;11.80;5.65;;;;;;;25.65;46.82;99489.47;4957133;28;20047;-70
2022/06/02 09:00:20;;;;;;;9.07;5.30;;;;;;;25.37;48.06;99481.88;4974414;28;20043;-71
2022/06/02 09:03:18;;;;;;;16.50;5.70;;;;;;;25.30;48.05;99487.06;4941209;28;20046;-71
2022/06/02 09:05:59;;;;;;;7.38;4.75;;;;;;;25.36;48.20;99493.09;4974562;28;20396;-71
2022/06/02 09:08:40;;;;;;;18.38;5.40;;;;;;;25.39;49.01;99492.44;4975030;28;20396;-70
2022/06/02 09:11:28;;;;;;;10.85;5.00;;;;;;;25.72;48.04;99494.31;4974811;28;20142;-72
2022/06/02 09:14:09;;;;;;;10.20;5.38;;;;;;;25.76;47.44;99481.66;4951492;28;20059;-72
2022/06/02 09:16:39;;;;;;;12.98;5.93;;;;;;;25.67;47.47;99480.97;4974283;28;20038;-71
2022/06/02 09:19:38;;;;;;;7.18;5.25;;;;;;;25.40;48.26;99474.22;4974616;28;20492;-70
2022/06/02 09:22:10;;;;;;;10.98;6.05;;;;;;;25.18;49.73;99478.88;4957208;28;20039;-70
2022/06/02 09:24:42;;;;;;;8.18;6.28;;;;;;;25.06;48.99;99476.06;4973966;28;20039;-70
2022/06/02 09:27:42;;;;;;;10.10;5.70;;;;;;;25.17;48.77;99479.22;4974404;28;20524;-70
2022/06/02 09:30:15;;;;;;;11.27;5.50;;;;;;;25.26;48.47;99472.56;4956039;28;20097;-71
2022/06/02 09:33:33;;;;;;;9.05;5.40;;;;;;;25.18;49.52;99459.91;4973753;28;20078;-71
2022/06/02 09:36:04;;;;;;;11.48;5.75;;;;;;;25.15;49.97;99469.50;4973553;28;20052;-70
2022/06/02 09:38:46;;;;;;;10.10;5.20;;;;;;;25.16;48.80;99459.44;4940126;28;20063;-70
2022/06/02 09:41:34;;;;;;;11.10;5.47;;;;;;;25.14;48.63;99465.19;4956323;28;20049;-70
2022/06/02 09:44:21;;;;;;;10.35;6.13;;;;;;;25.10;49.04;99455.31;4956453;28;20046;-71
2022/06/02 09:47:25;;;;;;;7.68;5.60;;;;;;;25.03;49.11;99450.44;4940279;28;20092;-70
2022/06/02 09:50:07;;;;;;;7.75;5.55;;;;;;;25.17;50.22;99452.09;4952830;28;20424;-70
2022/06/02 09:53:04;;;;;;;8.32;5.20;;;;;;;25.32;49.89;99454.97;4956370;28;20046;-71
2022/06/02 09:56:03;;;;;;;10.65;5.60;;;;;;;25.52;48.79;99455.25;4956176;28;20051;-72
2022/06/02 09:58:41;;;;;;;12.63;5.43;;;;;;;25.75;49.19;99455.66;4956380;28;20083;-70
2022/06/02 10:01:15;;;;;;;15.23;5.40;;;;;;;25.76;47.59;99441.72;4974221;28;20047;-71
2022/06/02 10:04:20;;;;;;;5.88;4.63;;;;;;;25.53;48.30;99443.25;4940372;28;20046;-71
2022/06/02 10:06:54;;;;;;;13.48;5.50;;;;;;;25.53;48.55;99443.25;4920526;28;20595;-71
2022/06/02 10:09:32;;;;;;;9.23;4.90;;;;;;;25.74;48.62;99444.00;4938853;28;20047;-71
2022/06/02 10:15:39;;;;;;;14.27;5.32;;;;;;;25.98;48.84;99437.03;4951988;28;20055;-70
2022/06/02 10:18:11;;;;;;;9.90;5.78;;;;;;;26.00;48.24;99440.19;4953549;28;20055;-71
2022/06/02 10:21:05;;;;;;;19.23;6.60;;;;;;;26.08;47.50;99435.78;4952733;28;20541;-71
2022/06/02 10:23:39;;;;;;;10.63;5.65;;;;;;;25.93;46.51;99442.69;4953762;28;20050;-71
2022/06/02 10:26:29;;;;;;;7.18;5.10;;;;;;;25.75;46.55;99437.44;4953064;28;20143;-70
2022/06/02 10:29:36;;;;;;;6.55;4.72;;;;;;;25.68;47.18;99434.50;4952921;28;20116;-70
2022/06/02 10:32:40;;;;;;;11.13;5.55;;;;;;;25.53;47.38;99429.69;4951742;28;20082;-71
2022/06/02 10:35:09;;;;;;;9.18;5.43;;;;;;;25.48;47.23;99436.13;4938386;28;20731;-70
2022/06/02 10:38:04;;;;;;;6.68;4.82;;;;;;;25.70;46.89;99436.84;4953943;28;20129;-70
2022/06/02 10:41:10;;;;;;;6.93;5.30;;;;;;;26.04;46.84;99436.47;4944712;28;20500;-71
2022/06/02 10:44:13;;;;;;;8.63;5.10;;;;;;;26.16;46.96;99437.59;4866348;29;20391;-70
2022/06/02 10:47:17;;;;;;;9.38;5.18;;;;;;;26.20;46.46;99428.41;4912290;29;20419;-70
2022/06/02 10:50:17;;;;;;;12.68;5.57;;;;;;;26.14;46.17;99429.78;4914280;29;20239;-70
2022/06/02 10:52:55;;;;;;;12.13;5.47;;;;;;;26.20;46.70;99431.13;4931420;29;20058;-70
2022/06/02 10:55:35;;;;;;;9.52;5.00;;;;;;;26.38;47.13;99428.97;4946943;28;20044;-69
2022/06/02 10:58:32;;;;;;;13.27;6.00;;;;;;;26.42;46.52;99435.31;4952108;28;20047;-71
2022/06/02 11:01:23;;;;;;;7.32;5.00;;;;;;;26.38;46.56;99422.75;4952522;29;20051;-70
2022/06/02 11:04:16;;;;;;;7.60;5.30;;;;;;;26.48;46.75;99427.72;4934324;29;20538;-70
2022/06/02 11:07:19;;;;;;;14.88;5.20;;;;;;;26.73;44.59;99423.03;4951789;29;20051;-70
2022/06/02 11:09:57;;;;;;;7.70;5.10;;;;;;;26.86;44.02;99419.16;4951158;29;20047;-68
2022/06/02 11:12:53;;;;;;;15.65;5.45;;;;;;;26.71;44.23;99422.59;4952477;28;20070;-69
2022/06/02 11:15:27;;;;;;;7.93;5.22;;;;;;;26.31;44.04;99420.59;4951305;29;20039;-69
2022/06/02 11:18:18;;;;;;;7.22;4.70;;;;;;;26.18;44.60;99421.75;4952049;28;20043;-70
2022/06/02 11:20:58;;;;;;;7.95;5.30;;;;;;;26.15;45.15;99417.81;4943917;29;20050;-70
2022/06/02 11:23:45;;;;;;;;;;;;;;;26.09;45.23;99427.31;4919122;29;20043;-70
2022/06/02 11:26:26;;;;;;;10.05;5.55;;;;;;;26.29;44.82;99425.56;4951246;29;19933;-69
2022/06/02 11:29:10;;;;;;;11.50;5.10;;;;;;;26.56;45.14;99424.13;4952624;28;20449;-71
2022/06/02 11:32:06;;;;;;;6.55;4.78;;;;;;;26.82;43.34;99425.63;4952355;29;20047;-71
2022/06/02 11:34:59;;;;;;;8.93;4.90;;;;;;;27.02;43.68;99411.03;4951252;29;20130;-70
2022/06/02 11:37:54;;;;;;;6.00;5.03;;;;;;;27.07;44.61;99415.44;4951593;29;20058;-70
2022/06/02 11:40:33;;;;;;;10.25;5.90;;;;;;;26.95;44.53;99417.06;4923881;29;20047;-70
2022/06/02 11:43:24;;;;;;;9.40;5.13;;;;;;;26.91;42.97;99421.63;4952750;28;20437;-69
2022/06/02 11:45:50;;;;;;;10.88;5.30;;;;;;;26.77;44.46;99420.41;4933424;29;20054;-70
2022/06/02 11:48:24;;;;;;;12.35;5.68;;;;;;;26.83;43.88;99419.84;4950704;28;20142;-71
2022/06/02 11:51:27;;;;;;;21.48;6.60;;;;;;;26.76;44.37;99427.00;4949460;29;20508;-69
2022/06/02 11:54:19;;;;;;;9.07;5.35;;;;;;;26.77;45.36;99426.66;4948439;29;20430;-69
2022/06/02 11:57:22;;;;;;;20.77;6.50;;;;;;;27.04;44.12;99425.09;4916046;29;20051;-73
2022/06/02 12:00:08;;;;;;;9.38;5.85;;;;;;;27.16;43.40;99427.00;4960268;28;20054;-72
2022/06/02 12:03:08;;;;;;;16.08;6.05;;;;;;;27.11;43.51;99419.81;4913490;29;20133;-71
2022/06/02 12:06:02;;;;;;;8.25;5.43;;;;;;;26.80;44.17;99417.81;4933321;29;20054;-73
2022/06/02 12:08:42;;;;;;;17.33;6.57;;;;;;;26.61;44.58;99418.41;4950904;28;20047;-71
2022/06/02 12:11:26;;;;;;;;;;;;;;;26.53;45.16;99413.91;4949944;29;20086;-71
2022/06/02 12:14:11;;;;;;;11.80;5.75;;;;;;;26.58;44.34;99412.88;4950975;28;19929;-69
2022/06/02 12:16:39;;;;;;;10.82;6.35;;;;;;;26.56;44.84;99412.44;4949537;29;20043;-70
2022/06/02 12:19:34;;;;;;;11.93;6.20;;;;;;;26.45;45.84;99410.16;4950464;28;20057;-71
2022/06/02 12:22:13;;;;;;;12.98;6.38;;;;;;;26.42;46.43;99402.69;4933458;29;20500;-72
2022/06/02 12:24:57;;;;;;;15.15;6.13;;;;;;;26.49;45.58;99405.66;4929029;29;20039;-70
2022/06/02 12:27:26;;;;;;;11.35;5.75;;;;;;;26.48;44.45;99408.69;4950638;28;20047;-71
2022/06/02 12:30:04;;;;;;;16.45;6.20;;;;;;;26.50;45.15;99401.81;4939209;28;20043;-71
2022/06/02 12:32:30;;;;;;;17.30;6.38;;;;;;;26.56;44.97;99405.09;4945269;29;20048;-70
2022/06/02 12:35:28;;;;;;;9.70;6.00;;;;;;;26.66;44.58;99403.81;4941597;29;20142;-69
2022/06/02 12:38:15;;;;;;;10.23;5.55;;;;;;;26.69;45.36;99408.56;4936414;28;20039;-71
2022/06/02 12:41:08;;;;;;;8.30;5.97;;;;;;;26.60;44.48;99407.91;4949180;28;20110;-71
2022/06/02 12:43:49;;;;;;;8.40;5.95;;;;;;;26.48;44.90;99398.59;4925423;29;20074;-71
2022/06/02 12:46:37;;;;;;;12.43;5.63;;;;;;;26.52;44.45;99395.22;4939259;29;20043;-71
2022/06/02 12:49:37;;;;;;;11.85;6.15;;;;;;;26.49;44.73;99394.78;4925722;29;20581;-71
2022/06/02 12:52:09;;;;;;;19.08;10.13;;;;;;;26.48;45.93;99397.81;4950208;29;20142;-72
2022/06/02 12:54:50;;;;;;;11.18;6.85;;;;;;;26.53;44.58;99394.88;4940387;29;20044;-71
2022/06/02 12:57:34;;;;;;;9.88;5.88;;;;;;;26.51;44.30;99397.16;4940885;29;20485;-68
2022/06/02 13:00:06;;;;;;;9.80;6.60;;;;;;;26.55;45.45;99398.06;4936570;29;20516;-70